Time;durP1;ratioP1;P1;durP2;ratioP2;P2;SDS_P1;SDS_P2;PMS_P1;PMS_P2;Temp;Humidity;BMP_temperature;BMP_pressure;BME280_temperature;BME280_humidity;BME280_pressure;Samples;Min_cycle;Max_cycle;Signal;HPM_P1;HPM_P2
2022/04/20 00:03:02;;;;;;;6.10;5.50;;;;;;;;;;4963469;28;20539;-90
2022/04/20 00:06:06;;;;;;;6.17;5.57;;;;;;;;;;4962702;28;20622;-90
2022/04/20 00:09:11;;;;;;;7.17;6.00;;;;;;;;;;4962960;28;20542;-91
2022/04/20 00:12:15;;;;;;;7.30;6.10;;;;;;;;;;4963280;28;20598;-90
2022/04/20 00:15:19;;;;;;;6.80;6.10;;;;;;;;;;4974189;28;20618;-90
2022/04/20 00:18:23;;;;;;;7.73;6.50;;;;;;;;;;4963141;28;20550;-90
2022/04/20 00:21:27;;;;;;;7.03;6.33;;;;;;;;;;4963211;28;21077;-90
2022/04/20 00:24:31;;;;;;;6.60;5.90;;;;;;;;;;4962916;28;20645;-90
2022/04/20 00:27:36;;;;;;;7.17;6.43;;;;;;;;;;4966757;28;20891;-90
2022/04/20 00:30:41;;;;;;;6.30;5.70;;;;;;;;;;4966695;28;20547;-90
2022/04/20 00:33:45;;;;;;;6.40;5.70;;;;;;;;;;4966741;28;21073;-90
2022/04/20 00:36:53;;;;;;;7.07;6.37;;;;;;;;;;4955973;28;20538;-90
2022/04/20 00:39:57;;;;;;;6.53;5.93;;;;;;;;;;4955792;28;20565;-90
2022/04/20 00:43:01;;;;;;;7.30;6.50;;;;;;;;;;4955733;28;20539;-90
2022/04/20 00:46:06;;;;;;;7.77;6.47;;;;;;;;;;4966340;28;20962;-90
2022/04/20 00:49:11;;;;;;;7.70;6.60;;;;;;;;;;4966718;28;20539;-90
2022/04/20 00:52:15;;;;;;;7.07;6.27;;;;;;;;;;4966480;28;20590;-90
2022/04/20 00:55:19;;;;;;;6.90;6.20;;;;;;;;;;4966497;28;20626;-90
2022/04/20 00:58:24;;;;;;;7.13;6.33;;;;;;;;;;4966609;28;20535;-91
2022/04/20 01:01:30;;;;;;;8.77;6.60;;;;;;;;;;4966823;28;20546;-90
2022/04/20 01:04:34;;;;;;;7.10;6.20;;;;;;;;;;4966431;28;20621;-89
2022/04/20 01:08:14;;;;;;;8.60;6.53;;;;;;;;;;4969648;28;21119;-90
2022/04/20 01:11:36;;;;;;;6.97;6.07;;;;;;;;;;4968091;28;20602;-90
2022/04/20 01:15:06;;;;;;;7.73;6.93;;;;;;;;;;4969318;28;20617;-90
2022/04/20 01:18:27;;;;;;;7.43;6.57;;;;;;;;;;4965885;28;20882;-90
2022/04/20 01:21:40;;;;;;;7.37;6.57;;;;;;;;;;4955864;28;20602;-90
2022/04/20 01:24:51;;;;;;;8.73;6.93;;;;;;;;;;4965609;28;20641;-90
2022/04/20 01:28:21;;;;;;;8.53;7.20;;;;;;;;;;4976968;28;20613;-90
2022/04/20 01:31:43;;;;;;;8.73;7.43;;;;;;;;;;4968238;28;21156;-90
2022/04/20 01:34:54;;;;;;;7.87;7.07;;;;;;;;;;4966651;28;20622;-89
2022/04/20 01:37:59;;;;;;;10.80;8.13;;;;;;;;;;4964572;28;20594;-90
2022/04/20 01:41:04;;;;;;;8.60;7.33;;;;;;;;;;4965481;28;20546;-90
2022/04/20 01:44:10;;;;;;;9.30;7.63;;;;;;;;;;4965279;28;20539;-90
2022/04/20 01:47:32;;;;;;;12.03;8.63;;;;;;;;;;4967671;28;20543;-90
2022/04/20 01:54:31;;;;;;;9.10;7.63;;;;;;;;;;4976124;28;20618;-89
2022/04/20 01:57:53;;;;;;;9.60;8.30;;;;;;;;;;4968029;28;20539;-90
2022/04/20 02:04:34;;;;;;;11.73;9.40;;;;;;;;;;4976149;28;21183;-90
2022/04/20 02:07:39;;;;;;;11.00;9.50;;;;;;;;;;4965316;28;21085;-90
2022/04/20 02:10:44;;;;;;;10.93;9.07;;;;;;;;;;4964981;28;20559;-90
2022/04/20 02:13:49;;;;;;;12.43;10.37;;;;;;;;;;4964786;28;20602;-91
2022/04/20 02:16:55;;;;;;;13.23;9.90;;;;;;;;;;4964824;28;20555;-90
2022/04/20 02:20:22;;;;;;;11.20;10.00;;;;;;;;;;4967788;28;20542;-90
2022/04/20 02:23:26;;;;;;;12.17;9.73;;;;;;;;;;4964745;28;20546;-90
2022/04/20 02:26:30;;;;;;;10.33;9.20;;;;;;;;;;4964562;28;20535;-90
2022/04/20 02:29:35;;;;;;;14.50;9.57;;;;;;;;;;4964189;28;20610;-90
2022/04/20 02:32:39;;;;;;;11.40;8.70;;;;;;;;;;4963984;28;20645;-90
2022/04/20 02:35:43;;;;;;;10.33;8.50;;;;;;;;;;4964470;28;20622;-90
2022/04/20 02:38:47;;;;;;;9.97;8.30;;;;;;;;;;4964078;28;20609;-90
2022/04/20 02:41:52;;;;;;;9.67;8.63;;;;;;;;;;4964162;28;20597;-90
2022/04/20 02:44:56;;;;;;;9.77;7.80;;;;;;;;;;4964367;28;21176;-90
2022/04/20 02:48:01;;;;;;;10.73;8.70;;;;;;;;;;4964443;28;20546;-90
2022/04/20 02:51:05;;;;;;;13.13;8.97;;;;;;;;;;4964892;28;20871;-90
2022/04/20 02:54:09;;;;;;;9.67;7.53;;;;;;;;;;4963546;28;20657;-89
2022/04/20 02:57:15;;;;;;;11.13;8.97;;;;;;;;;;4964127;28;20613;-90
2022/04/20 03:00:20;;;;;;;11.27;9.07;;;;;;;;;;4964751;28;20535;-90
2022/04/20 03:03:33;;;;;;;10.83;8.67;;;;;;;;;;4965450;28;20667;-90
2022/04/20 03:06:48;;;;;;;11.80;9.50;;;;;;;;;;4963815;28;20543;-90
2022/04/20 03:10:07;;;;;;;11.40;9.17;;;;;;;;;;4965661;28;20886;-89
2022/04/20 03:13:16;;;;;;;11.73;9.33;;;;;;;;;;4964223;28;21223;-90
2022/04/20 03:16:21;;;;;;;12.07;9.37;;;;;;;;;;4963919;28;20618;-90
2022/04/20 03:19:27;;;;;;;10.93;8.43;;;;;;;;;;4964405;28;20538;-90
2022/04/20 03:22:32;;;;;;;11.70;8.60;;;;;;;;;;4964026;28;20539;-89
2022/04/20 03:25:36;;;;;;;10.90;9.47;;;;;;;;;;4963876;28;20654;-88
2022/04/20 03:28:58;;;;;;;15.90;11.10;;;;;;;;;;4974726;28;20547;-88
2022/04/20 03:32:11;;;;;;;13.73;9.73;;;;;;;;;;4963466;28;20609;-88
2022/04/20 03:35:17;;;;;;;11.63;8.83;;;;;;;;;;4974675;28;20630;-88
2022/04/20 03:38:21;;;;;;;10.17;8.53;;;;;;;;;;4963472;28;20538;-88
2022/04/20 03:41:26;;;;;;;9.97;7.70;;;;;;;;;;4963279;28;20543;-89
2022/04/20 03:44:31;;;;;;;9.87;8.23;;;;;;;;;;4963207;28;20618;-88
2022/04/20 03:47:35;;;;;;;9.27;7.57;;;;;;;;;;4963486;28;20547;-88
2022/04/20 03:50:39;;;;;;;11.80;9.00;;;;;;;;;;4963151;28;20547;-88
2022/04/20 03:53:45;;;;;;;10.30;8.23;;;;;;;;;;4963229;28;20712;-89
2022/04/20 03:57:04;;;;;;;10.53;8.57;;;;;;;;;;4963636;28;20547;-88
2022/04/20 04:00:12;;;;;;;12.57;8.93;;;;;;;;;;4965434;28;20546;-88
2022/04/20 04:03:29;;;;;;;10.77;8.60;;;;;;;;;;4970933;28;20590;-88
2022/04/20 04:06:37;;;;;;;10.37;8.30;;;;;;;;;;4970553;28;20551;-88
2022/04/20 04:09:42;;;;;;;13.33;8.37;;;;;;;;;;4969779;28;20538;-88
2022/04/20 04:12:46;;;;;;;10.63;8.10;;;;;;;;;;4980479;28;20589;-88
2022/04/20 04:15:50;;;;;;;9.30;7.87;;;;;;;;;;4969247;28;20621;-88
2022/04/20 04:18:54;;;;;;;9.10;7.83;;;;;;;;;;4969456;28;20534;-88
2022/04/20 04:21:58;;;;;;;11.80;8.67;;;;;;;;;;4969268;28;20871;-88
2022/04/20 04:25:02;;;;;;;12.43;8.53;;;;;;;;;;4968981;28;20977;-88
2022/04/20 04:28:07;;;;;;;13.00;8.80;;;;;;;;;;4969824;28;20597;-88
2022/04/20 04:31:14;;;;;;;9.53;8.33;;;;;;;;;;4969918;28;21144;-88
2022/04/20 04:34:18;;;;;;;11.63;9.47;;;;;;;;;;4969112;28;20656;-88
2022/04/20 04:37:23;;;;;;;9.77;8.70;;;;;;;;;;4969177;28;20542;-88
2022/04/20 04:40:33;;;;;;;10.90;9.00;;;;;;;;;;4969031;28;20543;-88
2022/04/20 04:43:40;;;;;;;10.40;9.20;;;;;;;;;;4969249;28;20542;-88
2022/04/20 04:50:21;;;;;;;12.03;9.67;;;;;;;;;;4969233;28;21088;-88
2022/04/20 04:53:25;;;;;;;13.87;9.57;;;;;;;;;;4969303;28;20606;-89
2022/04/20 04:56:29;;;;;;;12.07;9.77;;;;;;;;;;4969083;28;20543;-88
2022/04/20 04:59:41;;;;;;;11.80;9.40;;;;;;;;;;4968926;28;20871;-89
2022/04/20 05:02:45;;;;;;;12.10;9.47;;;;;;;;;;4969058;28;20879;-89
2022/04/20 05:05:49;;;;;;;11.53;9.57;;;;;;;;;;4968669;28;20625;-89
2022/04/20 05:09:05;;;;;;;12.70;9.53;;;;;;;;;;4968500;28;20601;-88
2022/04/20 05:12:11;;;;;;;10.90;9.23;;;;;;;;;;4966215;28;20551;-87
2022/04/20 05:15:18;;;;;;;15.93;11.87;;;;;;;;;;4966076;28;20639;-90
2022/04/20 05:18:22;;;;;;;15.77;11.20;;;;;;;;;;4966015;28;20549;-89
2022/04/20 05:21:27;;;;;;;14.40;10.53;;;;;;;;;;4966007;28;20555;-88
2022/04/20 05:24:35;;;;;;;13.73;11.13;;;;;;;;;;4965840;28;20650;-89
2022/04/20 05:27:40;;;;;;;20.83;14.57;;;;;;;;;;4965691;28;21117;-89
2022/04/20 05:30:48;;;;;;;15.33;11.40;;;;;;;;;;4966279;28;20546;-89
2022/04/20 05:33:52;;;;;;;13.93;11.33;;;;;;;;;;4965339;28;20962;-89
2022/04/20 05:43:43;;;;;;;13.70;10.33;;;;;;;;;;4965177;28;21093;-89
2022/04/20 05:46:50;;;;;;;14.37;11.87;;;;;;;;;;4965635;28;20941;-90
2022/04/20 05:49:56;;;;;;;13.43;9.33;;;;;;;;;;4965969;28;20609;-89
2022/04/20 05:53:01;;;;;;;10.13;8.50;;;;;;;;;;4965488;28;20594;-89
2022/04/20 05:56:05;;;;;;;10.77;7.97;;;;;;;;;;4964955;28;20618;-89
2022/04/20 05:59:10;;;;;;;9.73;8.47;;;;;;;;;;4965454;28;20875;-90
2022/04/20 06:02:19;;;;;;;9.20;7.97;;;;;;;;;;4965675;28;20879;-89
2022/04/20 06:05:23;;;;;;;8.00;6.97;;;;;;;;;;4964859;28;20610;-89
2022/04/20 06:08:41;;;;;;;8.60;7.50;;;;;;;;;;4967115;28;20547;-87
2022/04/20 06:11:55;;;;;;;9.67;7.70;;;;;;;;;;4966573;28;21089;-89
2022/04/20 06:15:02;;;;;;;9.83;8.27;;;;;;;;;;4964768;28;21224;-87
2022/04/20 06:18:23;;;;;;;14.27;10.10;;;;;;;;;;4964781;28;20551;-86
2022/04/20 06:21:49;;;;;;;12.60;10.30;;;;;;;;;;4967878;28;20546;-87
2022/04/20 06:24:59;;;;;;;16.57;12.17;;;;;;;;;;4964900;28;20653;-88
2022/04/20 06:28:26;;;;;;;14.63;12.93;;;;;;;;;;4968095;28;20634;-87
2022/04/20 06:31:44;;;;;;;14.30;12.80;;;;;;;;;;4975485;28;20552;-87
2022/04/20 06:35:17;;;;;;;14.90;12.37;;;;;;;;;;4952150;28;20657;-87
2022/04/20 06:38:47;;;;;;;13.60;10.37;;;;;;;;;;4979278;28;20558;-87
2022/04/20 06:42:02;;;;;;;10.33;9.10;;;;;;;;;;4964142;28;20558;-86
2022/04/20 06:45:24;;;;;;;10.20;7.00;;;;;;;;;;4966608;28;20622;-85
2022/04/20 06:48:51;;;;;;;7.13;6.37;;;;;;;;;;4972848;28;20883;-87
2022/04/20 06:59:07;;;;;;;11.17;6.33;;;;;;;;;;4964580;28;20543;-88
2022/04/20 07:02:37;;;;;;;6.80;5.60;;;;;;;;;;4979099;28;20918;-87
2022/04/20 07:06:17;;;;;;;6.87;5.50;;;;;;;;;;4963748;28;20622;-87
2022/04/20 07:09:48;;;;;;;6.67;5.70;;;;;;;;;;4967794;28;20187;-88
2022/04/20 07:12:58;;;;;;;5.97;5.03;;;;;;;;;;4963804;28;20512;-88
2022/04/20 07:16:02;;;;;;;7.10;5.10;;;;;;;;;;4963722;28;20211;-88
2022/04/20 07:19:10;;;;;;;5.30;4.47;;;;;;;;;;4974688;28;20191;-88
2022/04/20 07:22:15;;;;;;;5.20;4.70;;;;;;;;;;4963715;28;20638;-88
2022/04/20 07:25:32;;;;;;;4.40;4.00;;;;;;;;;;4964799;28;20214;-88
2022/04/20 07:29:02;;;;;;;5.40;4.40;;;;;;;;;;4967207;28;20183;-88
2022/04/20 07:32:29;;;;;;;5.10;4.60;;;;;;;;;;4978063;28;20179;-88
2022/04/20 07:35:56;;;;;;;4.70;4.17;;;;;;;;;;4974410;28;20218;-87
2022/04/20 07:39:38;;;;;;;5.03;4.37;;;;;;;;;;4986816;28;20642;-88
2022/04/20 07:43:03;;;;;;;5.67;4.77;;;;;;;;;;4972968;28;20669;-88
2022/04/20 07:46:26;;;;;;;5.90;4.37;;;;;;;;;;4975677;28;20223;-88
2022/04/20 07:53:28;;;;;;;5.10;4.13;;;;;;;;;;4974262;28;20203;-88
2022/04/20 07:56:49;;;;;;;4.50;3.80;;;;;;;;;;4965700;28;20522;-89
2022/04/20 08:00:13;;;;;;;12.77;4.10;;;;;;;;;;4965954;28;20630;-89
2022/04/20 08:03:22;;;;;;;4.43;3.80;;;;;;;;;;4963745;28;20187;-88
2022/04/20 08:06:27;;;;;;;4.93;3.57;;;;;;;;;;4963151;28;20187;-89
2022/04/20 08:09:32;;;;;;;5.17;3.80;;;;;;;;;;4974120;28;20207;-89
2022/04/20 08:12:39;;;;;;;4.20;3.80;;;;;;;;;;4963183;28;20203;-89
2022/04/20 08:15:44;;;;;;;5.43;3.40;;;;;;;;;;4963129;28;20230;-89
2022/04/20 08:18:48;;;;;;;6.43;3.63;;;;;;;;;;4963395;28;20187;-89
2022/04/20 08:22:13;;;;;;;3.90;3.10;;;;;;;;;;4974314;28;20187;-89
2022/04/20 08:25:18;;;;;;;3.80;3.50;;;;;;;;;;4963052;28;20222;-88
2022/04/20 08:28:22;;;;;;;5.03;3.73;;;;;;;;;;4963550;28;20662;-87
2022/04/20 08:31:27;;;;;;;7.77;4.33;;;;;;;;;;4974679;28;20523;-88
2022/04/20 08:34:30;;;;;;;13.47;3.90;;;;;;;;;;4962649;28;20231;-87
2022/04/20 08:37:35;;;;;;;4.57;3.53;;;;;;;;;;4962806;28;20196;-87
2022/04/20 08:40:39;;;;;;;4.70;3.57;;;;;;;;;;4962854;28;20183;-88
2022/04/20 08:43:44;;;;;;;4.57;3.30;;;;;;;;;;4962855;28;20183;-88
2022/04/20 08:46:49;;;;;;;4.83;3.17;;;;;;;;;;4964671;28;20187;-87
2022/04/20 08:49:55;;;;;;;5.17;3.50;;;;;;;;;;4966880;28;20179;-87
2022/04/20 08:53:01;;;;;;;3.70;3.17;;;;;;;;;;4967946;28;20179;-87
2022/04/20 08:59:28;;;;;;;3.10;2.80;;;;;;;;;;4966735;28;20179;-85
2022/04/20 09:02:32;;;;;;;6.03;3.00;;;;;;;;;;4967312;28;20649;-84
2022/04/20 09:05:41;;;;;;;3.37;3.07;;;;;;;;;;4966320;28;20211;-88
2022/04/20 09:08:45;;;;;;;3.40;3.10;;;;;;;;;;4966192;28;20183;-88
2022/04/20 09:11:51;;;;;;;4.43;3.03;;;;;;;;;;4966046;28;20203;-90
2022/04/20 09:16:47;;;;;;;2.90;2.70;;;;;;;;;;4967436;28;20246;-89
2022/04/20 09:20:17;;;;;;;3.17;2.83;;;;;;;;;;4964374;28;20179;-90
2022/04/20 09:23:26;;;;;;;3.17;2.60;;;;;;;;;;4964722;28;20195;-90
2022/04/20 09:26:30;;;;;;;2.83;2.63;;;;;;;;;;4986388;23;20230;-83
2022/04/20 09:29:39;;;;;;;3.93;2.80;;;;;;;;;;4975898;28;20193;-84
2022/04/20 09:32:45;;;;;;;2.80;2.50;;;;;;;;;;4974476;28;20178;-85
2022/04/20 09:35:52;;;;;;;6.60;2.70;;;;;;;;;;4975421;28;20225;-83
2022/04/20 09:39:04;;;;;;;5.87;2.80;;;;;;;;;;4975232;28;20178;-85
2022/04/20 09:42:11;;;;;;;2.70;2.50;;;;;;;;;;4985560;28;20182;-86
2022/04/20 09:45:19;;;;;;;3.27;2.50;;;;;;;;;;4985228;28;20186;-85
2022/04/20 09:51:46;;;;;;;3.87;3.17;;;;;;;;;;4996114;28;20178;-86
2022/04/20 09:54:55;;;;;;;3.20;2.90;;;;;;;;;;4984541;28;20210;-87
2022/04/20 09:58:19;;;;;;;3.87;2.73;;;;;;;;;;4972771;28;20182;-87
2022/04/20 10:01:30;;;;;;;3.27;2.50;;;;;;;;;;4984686;28;20186;-89
2022/04/20 10:04:35;;;;;;;2.80;2.60;;;;;;;;;;4973893;28;20175;-85
2022/04/20 10:07:40;;;;;;;2.87;2.63;;;;;;;;;;4995426;28;20186;-89
2022/04/20 10:10:46;;;;;;;3.30;2.73;;;;;;;;;;4984305;28;20198;-87
2022/04/20 10:17:25;;;;;;;2.90;2.43;;;;;;;;;;4984210;28;20641;-90
2022/04/20 10:20:31;;;;;;;2.73;1.70;;;;;;;;;;4973319;28;20194;-86
2022/04/20 10:23:40;;;;;;;2.70;2.50;;;;;;;;;;4973567;28;20657;-85
2022/04/20 10:26:48;;;;;;;4.97;3.17;;;;;;;;;;4983774;28;20562;-87
2022/04/20 10:29:59;;;;;;;8.23;2.80;;;;;;;;;;4985257;28;20183;-85
2022/04/20 10:33:14;;;;;;;3.33;2.90;;;;;;;;;;4984563;28;20186;-85
2022/04/20 10:36:28;;;;;;;3.40;2.87;;;;;;;;;;4983448;28;20226;-85
2022/04/20 10:39:40;;;;;;;2.97;2.77;;;;;;;;;;4983755;28;20228;-85
2022/04/20 10:43:18;;;;;;;3.23;2.87;;;;;;;;;;4973112;28;20201;-85
2022/04/20 10:46:22;;;;;;;3.17;2.87;;;;;;;;;;4972418;28;20688;-85
2022/04/20 10:49:34;;;;;;;2.83;2.63;;;;;;;;;;4994731;28;20186;-85
2022/04/20 10:52:41;;;;;;;3.93;3.00;;;;;;;;;;4983413;28;20186;-85
2022/04/20 10:55:44;;;;;;;2.90;2.60;;;;;;;;;;4982836;28;20570;-85
2022/04/20 10:58:52;;;;;;;3.27;2.50;;;;;;;;;;4972072;28;20201;-85
2022/04/20 11:02:01;;;;;;;3.20;2.90;;;;;;;;;;4972215;28;20183;-85
2022/04/20 11:05:13;;;;;;;3.90;2.60;;;;;;;;;;4983758;28;20605;-83
2022/04/20 11:08:18;;;;;;;4.17;2.77;;;;;;;;;;4971889;28;20182;-84
2022/04/20 11:22:07;;;;;;;2.83;2.53;;;;;;;;;;4982749;28;20191;-87
2022/04/20 11:25:12;;;;;;;3.30;3.00;;;;;;;;;;4983001;28;20186;-88
2022/04/20 11:28:16;;;;;;;3.17;2.87;;;;;;;;;;4993954;28;20182;-88
2022/04/20 11:31:21;;;;;;;3.30;3.00;;;;;;;;;;4983710;28;20181;-84
2022/04/20 11:34:26;;;;;;;3.87;2.57;;;;;;;;;;4971347;28;20194;-86
2022/04/20 11:37:30;;;;;;;3.17;2.87;;;;;;;;;;4971368;28;20673;-83
2022/04/20 11:40:41;;;;;;;3.83;2.27;;;;;;;;;;4982289;28;20181;-86
2022/04/20 11:43:49;;;;;;;7.00;2.70;;;;;;;;;;4993958;28;20514;-86
2022/04/20 11:47:00;;;;;;;3.17;2.87;;;;;;;;;;4971338;28;20680;-86
2022/04/20 11:50:08;;;;;;;2.90;2.60;;;;;;;;;;4993464;28;20186;-87
2022/04/20 11:53:38;;;;;;;5.57;2.53;;;;;;;;;;4984408;28;20178;-86
2022/04/20 11:57:15;;;;;;;4.10;2.80;;;;;;;;;;4975042;28;20218;-85
2022/04/20 12:00:21;;;;;;;5.17;2.70;;;;;;;;;;4982155;28;20190;-86
2022/04/20 12:03:25;;;;;;;2.60;2.30;;;;;;;;;;4994414;28;20194;-86
2022/04/20 12:06:30;;;;;;;2.87;2.50;;;;;;;;;;4982143;28;20288;-85
2022/04/20 12:09:39;;;;;;;2.40;2.20;;;;;;;;;;4983399;28;20178;-85
2022/04/20 12:12:43;;;;;;;3.33;2.70;;;;;;;;;;4982634;28;20186;-87
2022/04/20 12:15:58;;;;;;;4.47;3.03;;;;;;;;;;4981972;28;20596;-86
2022/04/20 12:19:03;;;;;;;3.97;2.80;;;;;;;;;;4971175;28;20182;-90
2022/04/20 12:22:09;;;;;;;2.80;2.60;;;;;;;;;;4983220;28;20174;-90
2022/04/20 12:25:19;;;;;;;4.50;3.00;;;;;;;;;;4985740;28;20198;-89
2022/04/20 12:28:35;;;;;;;3.00;2.70;;;;;;;;;;4986058;28;20178;-90
2022/04/20 12:31:43;;;;;;;3.60;2.87;;;;;;;;;;4974763;28;20182;-90
2022/04/20 12:34:54;;;;;;;3.37;2.90;;;;;;;;;;4985923;28;20179;-90
2022/04/20 12:37:58;;;;;;;4.37;2.90;;;;;;;;;;4974826;28;20629;-86
2022/04/20 12:41:02;;;;;;;3.23;2.77;;;;;;;;;;4985767;28;20190;-85
2022/04/20 12:44:35;;;;;;;5.07;3.00;;;;;;;;;;4974561;28;20183;-85
2022/04/20 12:47:39;;;;;;;4.63;3.03;;;;;;;;;;4974618;28;20645;-86
2022/04/20 12:50:44;;;;;;;12.17;3.53;;;;;;;;;;4974499;28;20186;-87
2022/04/20 12:53:50;;;;;;;3.20;2.90;;;;;;;;;;4975867;28;20674;-88
2022/04/20 13:03:42;;;;;;;3.40;2.50;;;;;;;;;;4985056;28;20179;-86
2022/04/20 13:06:46;;;;;;;4.47;2.80;;;;;;;;;;4985351;28;20550;-87
2022/04/20 13:09:50;;;;;;;3.40;2.57;;;;;;;;;;4985001;28;20194;-86
2022/04/20 13:12:56;;;;;;;6.07;2.50;;;;;;;;;;4974196;28;20193;-86
2022/04/20 13:16:10;;;;;;;2.63;2.43;;;;;;;;;;4974647;28;20226;-87
2022/04/20 13:19:15;;;;;;;3.90;2.63;;;;;;;;;;4985477;28;20198;-87
2022/04/20 13:22:19;;;;;;;3.20;2.90;;;;;;;;;;4985466;28;20178;-87
2022/04/20 13:28:48;;;;;;;3.70;2.63;;;;;;;;;;4984698;28;20661;-87
2022/04/20 13:31:53;;;;;;;3.47;2.53;;;;;;;;;;4986398;28;20187;-85
2022/04/20 13:34:57;;;;;;;5.67;4.23;;;;;;;;;;4986763;28;20186;-84
2022/04/20 13:38:02;;;;;;;59.83;10.47;;;;;;;;;;4987254;28;20182;-84
2022/04/20 13:41:06;;;;;;;3.93;2.93;;;;;;;;;;4998177;28;20579;-84
2022/04/20 13:44:11;;;;;;;8.27;3.10;;;;;;;;;;4997294;28;20202;-83
2022/04/20 13:47:16;;;;;;;5.00;2.70;;;;;;;;;;4998147;28;20545;-84
2022/04/20 13:50:20;;;;;;;3.07;2.77;;;;;;;;;;4987018;28;20182;-84
2022/04/20 13:53:24;;;;;;;3.97;2.73;;;;;;;;;;4974254;28;20175;-84
2022/04/20 13:56:28;;;;;;;4.20;2.53;;;;;;;;;;4984938;28;20226;-84
2022/04/20 13:59:33;;;;;;;3.10;2.80;;;;;;;;;;4985462;28;20194;-84
2022/04/20 14:02:37;;;;;;;2.90;2.60;;;;;;;;;;4985836;28;20182;-84
2022/04/20 14:05:41;;;;;;;4.40;2.83;;;;;;;;;;4973594;28;20221;-84
2022/04/20 14:08:45;;;;;;;4.00;2.87;;;;;;;;;;4985700;28;20182;-84
2022/04/20 14:11:49;;;;;;;4.27;3.27;;;;;;;;;;4984318;28;20554;-87
2022/04/20 14:14:53;;;;;;;2.90;2.60;;;;;;;;;;4983855;28;20193;-87
2022/04/20 14:17:57;;;;;;;4.20;3.10;;;;;;;;;;4973384;28;20198;-89
2022/04/20 14:21:02;;;;;;;4.30;3.13;;;;;;;;;;4984504;28;20183;-89
2022/04/20 14:24:07;;;;;;;5.07;2.73;;;;;;;;;;4973670;28;20186;-84
2022/04/20 14:33:59;;;;;;;4.37;2.67;;;;;;;;;;4984003;28;20186;-84
2022/04/20 14:37:05;;;;;;;2.63;2.20;;;;;;;;;;4983511;28;20225;-84
2022/04/20 14:40:09;;;;;;;4.07;2.17;;;;;;;;;;4972969;28;20182;-84
2022/04/20 14:43:13;;;;;;;2.63;2.37;;;;;;;;;;4973458;28;20186;-84
2022/04/20 14:46:17;;;;;;;6.63;3.23;;;;;;;;;;4972877;28;20214;-83
2022/04/20 14:49:21;;;;;;;4.13;2.80;;;;;;;;;;4983662;28;20178;-83
2022/04/20 14:52:25;;;;;;;3.03;2.73;;;;;;;;;;4983649;28;20182;-83
2022/04/20 14:55:30;;;;;;;2.90;2.37;;;;;;;;;;4972856;28;20217;-84
2022/04/20 14:58:34;;;;;;;3.07;2.77;;;;;;;;;;4972749;28;20178;-85
2022/04/20 15:01:38;;;;;;;3.77;2.90;;;;;;;;;;4972848;28;20182;-86
2022/04/20 15:04:44;;;;;;;4.37;2.50;;;;;;;;;;4972287;28;20186;-84
2022/04/20 15:07:48;;;;;;;4.30;3.17;;;;;;;;;;4985705;28;20174;-82
2022/04/20 15:10:53;;;;;;;4.03;3.13;;;;;;;;;;4976555;28;20186;-82
2022/04/20 15:13:57;;;;;;;5.57;2.93;;;;;;;;;;4987981;28;20178;-82
2022/04/20 15:17:01;;;;;;;4.27;2.60;;;;;;;;;;4974007;28;20218;-85
2022/04/20 15:20:06;;;;;;;3.50;3.10;;;;;;;;;;4995124;28;20174;-85
2022/04/20 15:23:10;;;;;;;3.53;3.10;;;;;;;;;;4973257;28;20182;-85
2022/04/20 15:26:14;;;;;;;3.70;2.80;;;;;;;;;;4975443;28;20221;-87
2022/04/20 15:29:18;;;;;;;2.80;2.60;;;;;;;;;;4984552;28;20182;-87
2022/04/20 15:32:22;;;;;;;4.00;2.80;;;;;;;;;;4994919;28;20182;-87
2022/04/20 15:35:26;;;;;;;7.77;3.30;;;;;;;;;;4972399;28;20210;-87
2022/04/20 15:38:34;;;;;;;4.63;3.17;;;;;;;;;;4972535;28;20515;-86
2022/04/20 15:41:41;;;;;;;3.80;3.27;;;;;;;;;;4971725;28;20523;-86
2022/04/20 15:44:45;;;;;;;7.37;3.30;;;;;;;;;;4971720;28;20182;-89
2022/04/20 15:47:49;;;;;;;6.73;2.87;;;;;;;;;;4982537;28;20178;-89
2022/04/20 15:50:53;;;;;;;4.03;2.67;;;;;;;;;;4993765;28;20178;-90
2022/04/20 15:53:57;;;;;;;3.40;3.00;;;;;;;;;;4971289;28;20187;-89
2022/04/20 16:00:24;;;;;;;7.47;3.20;;;;;;;;;;4993574;28;20199;-89
2022/04/20 16:03:29;;;;;;;6.60;3.07;;;;;;;;;;4971276;28;20515;-88
2022/04/20 16:06:34;;;;;;;5.87;2.60;;;;;;;;;;4970997;28;20214;-88
2022/04/20 16:09:38;;;;;;;3.70;2.67;;;;;;;;;;4982292;28;20534;-89
2022/04/20 16:12:44;;;;;;;2.67;2.40;;;;;;;;;;4982328;28;20178;-89
2022/04/20 16:15:50;;;;;;;2.57;2.33;;;;;;;;;;4970888;28;20217;-88
2022/04/20 16:18:54;;;;;;;3.37;2.67;;;;;;;;;;4982508;28;20190;-89
2022/04/20 16:21:58;;;;;;;5.47;3.33;;;;;;;;;;4970885;28;20546;-87
2022/04/20 16:25:07;;;;;;;6.30;2.50;;;;;;;;;;4971115;28;20182;-89
2022/04/20 16:28:11;;;;;;;3.37;2.60;;;;;;;;;;4970835;28;20681;-89
2022/04/20 16:31:15;;;;;;;3.03;2.70;;;;;;;;;;4971112;28;20629;-89
2022/04/20 16:34:19;;;;;;;4.77;3.30;;;;;;;;;;4982179;28;20642;-89
2022/04/20 16:37:24;;;;;;;3.33;3.00;;;;;;;;;;4982080;28;20696;-89
2022/04/20 16:40:29;;;;;;;3.73;3.27;;;;;;;;;;4972246;28;20178;-89
2022/04/20 16:43:35;;;;;;;6.10;3.37;;;;;;;;;;4983151;28;20182;-88
2022/04/20 16:46:42;;;;;;;5.10;2.97;;;;;;;;;;4982643;28;20218;-89
2022/04/20 16:49:47;;;;;;;5.77;2.80;;;;;;;;;;4994080;28;20249;-88
2022/04/20 16:52:52;;;;;;;4.80;3.83;;;;;;;;;;4974422;28;20174;-83
2022/04/20 16:55:56;;;;;;;5.23;3.13;;;;;;;;;;4972798;28;20222;-83
2022/04/20 16:59:01;;;;;;;3.80;2.73;;;;;;;;;;4971028;28;20178;-83
2022/04/20 17:02:05;;;;;;;5.20;3.13;;;;;;;;;;4993382;28;20182;-83
2022/04/20 17:05:10;;;;;;;4.03;2.53;;;;;;;;;;4971182;28;20542;-82
2022/04/20 17:08:14;;;;;;;5.63;2.57;;;;;;;;;;4985729;28;20182;-82
2022/04/20 17:11:18;;;;;;;3.57;2.57;;;;;;;;;;4974881;28;20614;-82
2022/04/20 17:14:23;;;;;;;9.30;2.90;;;;;;;;;;4985583;28;20174;-82
2022/04/20 17:17:27;;;;;;;4.17;3.27;;;;;;;;;;4974310;28;20214;-82
2022/04/20 17:27:16;;;;;;;4.27;2.63;;;;;;;;;;4985097;28;20218;-82
2022/04/20 17:30:20;;;;;;;5.77;3.07;;;;;;;;;;4984825;28;20182;-83
2022/04/20 17:33:25;;;;;;;4.43;2.60;;;;;;;;;;4984962;28;20194;-83
2022/04/20 17:36:47;;;;;;;4.20;3.10;;;;;;;;;;4996035;28;20218;-83
2022/04/20 17:39:55;;;;;;;4.07;2.53;;;;;;;;;;4973889;28;20186;-82
2022/04/20 17:42:59;;;;;;;3.20;2.90;;;;;;;;;;4973815;28;20178;-82
2022/04/20 17:46:03;;;;;;;4.73;3.10;;;;;;;;;;4973636;28;20214;-82
2022/04/20 17:49:07;;;;;;;5.13;3.00;;;;;;;;;;4984903;28;20170;-82
2022/04/20 17:52:11;;;;;;;5.43;2.60;;;;;;;;;;4973662;28;20182;-82
2022/04/20 17:55:15;;;;;;;3.50;2.43;;;;;;;;;;4984629;28;20182;-82
2022/04/20 17:58:20;;;;;;;5.07;2.60;;;;;;;;;;4973587;28;20206;-82
2022/04/20 18:01:27;;;;;;;3.80;2.90;;;;;;;;;;4973746;28;20633;-82
2022/04/20 18:04:31;;;;;;;12.57;2.73;;;;;;;;;;4973342;28;20198;-82
2022/04/20 18:07:37;;;;;;;4.37;2.60;;;;;;;;;;4998185;28;20186;-82
2022/04/20 18:10:41;;;;;;;3.90;2.40;;;;;;;;;;4984859;28;20182;-83
2022/04/20 18:13:46;;;;;;;2.90;2.27;;;;;;;;;;4984376;28;20202;-82
2022/04/20 18:16:51;;;;;;;2.77;2.30;;;;;;;;;;4973771;28;20685;-83
2022/04/20 18:19:55;;;;;;;4.20;2.57;;;;;;;;;;4973265;28;20187;-83
2022/04/20 18:22:59;;;;;;;3.67;2.07;;;;;;;;;;4984419;28;20186;-83
2022/04/20 18:26:03;;;;;;;3.40;2.30;;;;;;;;;;4984412;28;20229;-83
2022/04/20 18:29:09;;;;;;;4.13;2.47;;;;;;;;;;4997093;28;20171;-83
2022/04/20 18:32:14;;;;;;;3.30;2.37;;;;;;;;;;4973250;28;20198;-83
2022/04/20 18:35:18;;;;;;;3.83;2.30;;;;;;;;;;4973466;28;20213;-82
2022/04/20 18:38:22;;;;;;;3.10;2.27;;;;;;;;;;4973421;28;20222;-82
2022/04/20 18:41:27;;;;;;;4.90;2.33;;;;;;;;;;4984398;28;20178;-82
2022/04/20 18:44:33;;;;;;;2.93;2.30;;;;;;;;;;4995854;28;20174;-82
2022/04/20 18:47:37;;;;;;;4.03;2.30;;;;;;;;;;4973084;28;20487;-82
2022/04/20 18:50:44;;;;;;;5.23;2.77;;;;;;;;;;4973139;28;20182;-82
2022/04/20 19:00:33;;;;;;;11.73;2.60;;;;;;;;;;4995530;28;20182;-82
2022/04/20 19:03:37;;;;;;;5.80;2.77;;;;;;;;;;4983973;28;20202;-82
2022/04/20 19:06:41;;;;;;;8.30;2.60;;;;;;;;;;4973169;28;20214;-83
2022/04/20 19:09:46;;;;;;;6.47;2.23;;;;;;;;;;4973146;28;20174;-82
2022/04/20 19:12:50;;;;;;;5.97;2.63;;;;;;;;;;4983472;28;20178;-82
2022/04/20 19:15:54;;;;;;;3.43;2.07;;;;;;;;;;4972500;28;20218;-82
2022/04/20 19:18:58;;;;;;;8.57;2.77;;;;;;;;;;4983374;28;20210;-82
2022/04/20 19:22:03;;;;;;;7.47;2.90;;;;;;;;;;4983953;28;20185;-82
2022/04/20 19:25:08;;;;;;;8.53;2.63;;;;;;;;;;4982563;28;20660;-83
2022/04/20 19:28:13;;;;;;;2.90;2.30;;;;;;;;;;4971897;28;20645;-82
2022/04/20 19:31:17;;;;;;;10.87;2.90;;;;;;;;;;4982091;28;20194;-82
2022/04/20 19:34:22;;;;;;;8.00;2.70;;;;;;;;;;4995495;28;20201;-82
2022/04/20 19:37:26;;;;;;;3.97;2.43;;;;;;;;;;4983177;28;20213;-82
2022/04/20 19:40:36;;;;;;;18.03;2.97;;;;;;;;;;4972330;28;20170;-82
2022/04/20 19:43:40;;;;;;;10.07;2.87;;;;;;;;;;4971668;28;20178;-82
2022/04/20 19:46:45;;;;;;;15.77;2.97;;;;;;;;;;4982656;28;20214;-82
2022/04/20 19:49:49;;;;;;;15.03;2.80;;;;;;;;;;4982942;28;20174;-83
2022/04/20 19:52:54;;;;;;;16.33;2.67;;;;;;;;;;4971765;28;20178;-82
2022/04/20 19:55:57;;;;;;;17.57;2.80;;;;;;;;;;4994557;28;20213;-84
2022/04/20 19:59:02;;;;;;;14.20;3.40;;;;;;;;;;4979011;28;20205;-83
2022/04/20 20:02:09;;;;;;;8.23;2.80;;;;;;;;;;4982859;28;20179;-83
2022/04/20 20:05:13;;;;;;;11.40;2.30;;;;;;;;;;4982842;28;20190;-82
2022/04/20 20:08:17;;;;;;;16.10;3.10;;;;;;;;;;4995285;28;20194;-83